Time;durP1;ratioP1;P1;durP2;ratioP2;P2;SDS_P1;SDS_P2;PMS_P1;PMS_P2;Temp;Humidity;BMP_temperature;BMP_pressure;BME280_temperature;BME280_humidity;BME280_pressure;Samples;Min_cycle;Max_cycle;Signal;HPM_P1;HPM_P2
2024/01/17 00:00:09;;;;;;;10.63;4.28;;;;;;;;;;5024399;28;20044;-74
2024/01/17 00:02:35;;;;;;;12.73;4.43;;;;;;;;;;5036262;28;20037;-76
2024/01/17 00:05:00;;;;;;;9.90;4.22;;;;;;;;;;5013131;28;20034;-73
2024/01/17 00:07:25;;;;;;;8.38;4.50;;;;;;;;;;5016236;28;20040;-74
2024/01/17 00:09:51;;;;;;;10.63;3.83;;;;;;;;;;5017362;28;20090;-73
2024/01/17 00:12:16;;;;;;;10.60;4.57;;;;;;;;;;5033460;28;20131;-72
2024/01/17 00:14:42;;;;;;;7.55;4.30;;;;;;;;;;5032304;28;20038;-77
2024/01/17 00:17:08;;;;;;;8.82;4.63;;;;;;;;;;5021880;28;20049;-78
2024/01/17 00:19:34;;;;;;;8.02;3.75;;;;;;;;;;5015500;28;20109;-74
2024/01/17 00:22:00;;;;;;;8.20;4.18;;;;;;;;;;5024708;28;20034;-79
2024/01/17 00:24:25;;;;;;;8.32;3.85;;;;;;;;;;5042922;28;20595;-73
2024/01/17 00:26:50;;;;;;;10.48;3.60;;;;;;;;;;5035455;28;20037;-76
2024/01/17 00:29:16;;;;;;;9.13;4.25;;;;;;;;;;5023132;28;20129;-72
2024/01/17 00:31:42;;;;;;;6.93;3.70;;;;;;;;;;5026886;28;20033;-76
2024/01/17 00:34:08;;;;;;;10.02;4.80;;;;;;;;;;5023161;28;20046;-73
2024/01/17 00:36:33;;;;;;;10.98;3.55;;;;;;;;;;5050128;28;20443;-78
2024/01/17 00:38:58;;;;;;;9.55;3.97;;;;;;;;;;5041847;28;20067;-72
2024/01/17 00:41:24;;;;;;;11.00;3.92;;;;;;;;;;5047264;28;20030;-76
2024/01/17 00:43:49;;;;;;;6.50;4.30;;;;;;;;;;5025172;28;20044;-76
2024/01/17 00:46:14;;;;;;;11.35;4.22;;;;;;;;;;5038712;28;20044;-73
2024/01/17 00:48:40;;;;;;;11.65;4.20;;;;;;;;;;5026773;28;20069;-71
2024/01/17 00:51:06;;;;;;;10.60;4.35;;;;;;;;;;5019308;28;20045;-76
2024/01/17 00:53:31;;;;;;;8.48;4.65;;;;;;;;;;5036117;28;20044;-73
2024/01/17 00:55:57;;;;;;;7.35;3.42;;;;;;;;;;5033817;28;20107;-77
2024/01/17 00:58:22;;;;;;;5.80;3.08;;;;;;;;;;5049005;28;20767;-78
2024/01/17 01:00:47;;;;;;;11.60;3.88;;;;;;;;;;5039860;28;20063;-74
2024/01/17 01:03:13;;;;;;;8.23;3.47;;;;;;;;;;5025668;28;20049;-71
2024/01/17 01:05:39;;;;;;;13.35;4.97;;;;;;;;;;5035696;28;20129;-75
2024/01/17 01:08:05;;;;;;;10.77;4.05;;;;;;;;;;5036425;28;20227;-75
2024/01/17 01:10:30;;;;;;;7.50;4.10;;;;;;;;;;5039623;28;20589;-77
2024/01/17 01:12:56;;;;;;;8.93;4.05;;;;;;;;;;5014290;28;20095;-72
2024/01/17 01:15:21;;;;;;;5.43;2.38;;;;;;;;;;5030696;28;20045;-75
2024/01/17 01:17:47;;;;;;;9.60;4.25;;;;;;;;;;5011164;28;20624;-76
2024/01/17 01:20:12;;;;;;;11.98;4.00;;;;;;;;;;5045526;28;20068;-72
2024/01/17 01:22:37;;;;;;;5.25;2.90;;;;;;;;;;5027140;28;20041;-75
2024/01/17 01:25:03;;;;;;;13.80;4.82;;;;;;;;;;5017330;28;20149;-72
2024/01/17 01:27:29;;;;;;;4.75;2.58;;;;;;;;;;5023104;28;20072;-72
2024/01/17 01:29:54;;;;;;;8.18;3.90;;;;;;;;;;5018353;28;20041;-73
2024/01/17 01:32:19;;;;;;;8.65;4.10;;;;;;;;;;5021755;28;20039;-72
2024/01/17 01:34:45;;;;;;;14.25;5.07;;;;;;;;;;5019772;28;20033;-74
2024/01/17 01:37:10;;;;;;;9.90;4.00;;;;;;;;;;5037748;28;20036;-74
2024/01/17 01:39:35;;;;;;;9.85;4.32;;;;;;;;;;5036616;28;20132;-72
2024/01/17 01:42:01;;;;;;;9.57;4.10;;;;;;;;;;5044155;28;20056;-76
2024/01/17 01:44:26;;;;;;;8.95;4.00;;;;;;;;;;5036776;28;20561;-72
2024/01/17 01:46:52;;;;;;;7.65;4.35;;;;;;;;;;5014361;28;20045;-74
2024/01/17 01:49:18;;;;;;;8.38;4.22;;;;;;;;;;5035625;28;20500;-75
2024/01/17 01:51:46;;;;;;;7.47;4.13;;;;;;;;;;5034885;28;20037;-73
2024/01/17 01:54:14;;;;;;;5.50;3.72;;;;;;;;;;5048591;28;20525;-75
2024/01/17 01:56:40;;;;;;;10.63;4.20;;;;;;;;;;5030583;28;20037;-71
2024/01/17 01:59:07;;;;;;;8.23;3.60;;;;;;;;;;5022248;28;20075;-72
2024/01/17 02:01:32;;;;;;;10.55;4.40;;;;;;;;;;5034381;28;20278;-77
2024/01/17 02:04:00;;;;;;;8.00;3.70;;;;;;;;;;5049558;28;20713;-75
2024/01/17 02:06:30;;;;;;;7.63;3.53;;;;;;;;;;5033818;28;20069;-72
2024/01/17 02:08:57;;;;;;;13.27;4.25;;;;;;;;;;5022898;28;20611;-74
2024/01/17 02:11:22;;;;;;;9.63;3.67;;;;;;;;;;5021743;28;20608;-71
2024/01/17 02:13:49;;;;;;;10.40;3.88;;;;;;;;;;5021863;28;20043;-73
2024/01/17 02:16:15;;;;;;;6.45;3.50;;;;;;;;;;5037266;28;20041;-72
2024/01/17 02:18:42;;;;;;;7.22;3.63;;;;;;;;;;5041054;28;20037;-71
2024/01/17 02:21:08;;;;;;;9.93;4.20;;;;;;;;;;5010467;28;20120;-72
2024/01/17 02:23:34;;;;;;;8.65;3.80;;;;;;;;;;5028995;28;20124;-73
2024/01/17 02:25:59;;;;;;;10.43;4.00;;;;;;;;;;5038115;28;20044;-76
2024/01/17 02:28:27;;;;;;;8.93;3.75;;;;;;;;;;5033812;28;20033;-76
2024/01/17 02:30:53;;;;;;;7.20;3.78;;;;;;;;;;5025471;28;20052;-76
2024/01/17 02:33:19;;;;;;;10.10;3.47;;;;;;;;;;5023280;28;20033;-72
2024/01/17 02:35:45;;;;;;;8.93;4.10;;;;;;;;;;5025891;28;20496;-71
2024/01/17 02:38:10;;;;;;;7.25;3.38;;;;;;;;;;5047384;28;20042;-71
2024/01/17 02:40:36;;;;;;;11.48;4.25;;;;;;;;;;5017493;28;20405;-77
2024/01/17 02:43:01;;;;;;;6.03;3.75;;;;;;;;;;5039350;28;20048;-73
2024/01/17 02:45:26;;;;;;;8.52;3.85;;;;;;;;;;5047718;28;20054;-75
2024/01/17 02:47:52;;;;;;;7.68;3.40;;;;;;;;;;5047361;28;20100;-77
2024/01/17 02:50:18;;;;;;;11.18;3.97;;;;;;;;;;5033983;28;20032;-71
2024/01/17 02:52:44;;;;;;;17.38;5.03;;;;;;;;;;5033958;28;20039;-73
2024/01/17 02:55:10;;;;;;;6.72;3.75;;;;;;;;;;5023324;28;20485;-74
2024/01/17 02:57:36;;;;;;;6.13;3.70;;;;;;;;;;5034013;28;20028;-77
2024/01/17 03:00:02;;;;;;;6.55;3.40;;;;;;;;;;5035015;28;20044;-77
2024/01/17 03:02:27;;;;;;;10.70;4.60;;;;;;;;;;5034058;28;20033;-78
2024/01/17 03:04:52;;;;;;;9.30;4.40;;;;;;;;;;5025799;28;20060;-72
2024/01/17 03:07:18;;;;;;;14.82;5.05;;;;;;;;;;5024613;28;20045;-77
2024/01/17 03:09:43;;;;;;;9.57;4.72;;;;;;;;;;5015327;28;20037;-71
2024/01/17 03:12:09;;;;;;;7.03;4.10;;;;;;;;;;5033020;28;20119;-71
2024/01/17 03:14:35;;;;;;;8.75;4.13;;;;;;;;;;5034317;28;20500;-76
2024/01/17 03:17:01;;;;;;;9.90;4.38;;;;;;;;;;5032433;28;20422;-75
2024/01/17 03:19:26;;;;;;;9.38;4.65;;;;;;;;;;5034855;28;20052;-72
2024/01/17 03:21:52;;;;;;;10.57;4.55;;;;;;;;;;5037202;28;20059;-75
2024/01/17 03:24:17;;;;;;;9.65;4.72;;;;;;;;;;5027320;28;20037;-76
2024/01/17 03:26:43;;;;;;;7.28;3.92;;;;;;;;;;5037597;28;20040;-71
2024/01/17 03:29:08;;;;;;;8.90;4.90;;;;;;;;;;5031992;28;20044;-74
2024/01/17 03:31:33;;;;;;;12.65;5.00;;;;;;;;;;5024318;28;20095;-75
2024/01/17 03:33:59;;;;;;;9.05;5.20;;;;;;;;;;5028002;28;20899;-73
2024/01/17 03:36:27;;;;;;;9.63;4.75;;;;;;;;;;5035536;28;20039;-72
2024/01/17 03:38:54;;;;;;;11.00;4.40;;;;;;;;;;5024655;28;20052;-73
2024/01/17 03:41:50;;;;;;;9.15;4.65;;;;;;;;;;5027972;28;20045;-72
2024/01/17 03:44:15;;;;;;;11.40;4.25;;;;;;;;;;5033698;28;20037;-75
2024/01/17 03:46:40;;;;;;;10.05;4.18;;;;;;;;;;5037481;28;20032;-73
2024/01/17 03:49:06;;;;;;;7.57;4.05;;;;;;;;;;5033411;28;20143;-72
2024/01/17 03:51:31;;;;;;;10.82;4.05;;;;;;;;;;5006230;28;20091;-73
2024/01/17 03:53:56;;;;;;;14.77;4.97;;;;;;;;;;5026257;28;20091;-76
2024/01/17 03:56:23;;;;;;;7.95;3.92;;;;;;;;;;5030325;28;20714;-73
2024/01/17 03:58:48;;;;;;;9.18;4.22;;;;;;;;;;5020728;28;20083;-76
2024/01/17 04:01:13;;;;;;;7.88;3.95;;;;;;;;;;5026656;28;20037;-72
2024/01/17 04:03:42;;;;;;;8.90;3.40;;;;;;;;;;5016126;28;20041;-74
2024/01/17 04:06:07;;;;;;;6.85;3.53;;;;;;;;;;5012491;28;20041;-75
2024/01/17 04:08:33;;;;;;;13.07;4.18;;;;;;;;;;5020996;28;20041;-74
2024/01/17 04:10:58;;;;;;;10.55;4.60;;;;;;;;;;5024711;28;20501;-71
2024/01/17 04:13:24;;;;;;;9.25;4.75;;;;;;;;;;5027803;28;20029;-76
2024/01/17 04:15:49;;;;;;;15.18;5.00;;;;;;;;;;5035013;28;20037;-71
2024/01/17 04:18:14;;;;;;;9.85;4.28;;;;;;;;;;5016656;28;20037;-76
2024/01/17 04:20:40;;;;;;;8.60;4.53;;;;;;;;;;5016166;28;20044;-73
2024/01/17 04:23:06;;;;;;;8.98;5.13;;;;;;;;;;5015931;28;20084;-71
2024/01/17 04:25:31;;;;;;;9.48;4.25;;;;;;;;;;5025244;28;20517;-72
2024/01/17 04:27:57;;;;;;;7.97;4.80;;;;;;;;;;5030337;28;20040;-75
2024/01/17 04:30:22;;;;;;;10.23;4.38;;;;;;;;;;5028823;28;20441;-71
2024/01/17 04:32:48;;;;;;;5.63;3.88;;;;;;;;;;5034342;28;20040;-72
2024/01/17 04:35:18;;;;;;;8.90;4.13;;;;;;;;;;5021130;28;20751;-71
2024/01/17 04:37:43;;;;;;;7.40;4.25;;;;;;;;;;5033092;28;20546;-71
2024/01/17 04:40:09;;;;;;;10.60;4.35;;;;;;;;;;5025291;28;20047;-78
2024/01/17 04:42:34;;;;;;;10.02;4.43;;;;;;;;;;5032924;28;20099;-73
2024/01/17 04:44:59;;;;;;;8.70;4.22;;;;;;;;;;5031666;28;20064;-73
2024/01/17 04:47:25;;;;;;;14.45;5.85;;;;;;;;;;5018659;28;20043;-73
2024/01/17 04:49:50;;;;;;;10.05;4.75;;;;;;;;;;5018202;28;20116;-73
2024/01/17 04:52:18;;;;;;;13.52;5.20;;;;;;;;;;5031823;28;20048;-73
2024/01/17 04:54:43;;;;;;;12.18;5.70;;;;;;;;;;5032239;28;20571;-73
2024/01/17 04:57:09;;;;;;;10.77;5.90;;;;;;;;;;5027865;28;20045;-73
2024/01/17 04:59:35;;;;;;;15.25;8.38;;;;;;;;;;5022639;28;20036;-73
2024/01/17 05:02:00;;;;;;;13.68;7.47;;;;;;;;;;5015012;28;20545;-73
2024/01/17 05:04:26;;;;;;;11.45;5.90;;;;;;;;;;5032728;28;20103;-73
2024/01/17 05:06:51;;;;;;;12.30;5.35;;;;;;;;;;5032096;28;20040;-73
2024/01/17 05:09:18;;;;;;;10.80;5.88;;;;;;;;;;5031922;28;20040;-73
2024/01/17 05:11:44;;;;;;;8.77;4.97;;;;;;;;;;5039522;28;20036;-73
2024/01/17 05:14:09;;;;;;;14.73;6.82;;;;;;;;;;5014977;28;20091;-73
2024/01/17 05:16:35;;;;;;;15.60;7.70;;;;;;;;;;5024319;28;20036;-73
2024/01/17 05:19:00;;;;;;;22.10;9.82;;;;;;;;;;5042452;28;20124;-73
2024/01/17 05:21:26;;;;;;;26.90;9.10;;;;;;;;;;5035166;28;20537;-73
2024/01/17 05:23:52;;;;;;;21.40;8.98;;;;;;;;;;5034924;28;20513;-73
2024/01/17 05:26:18;;;;;;;19.52;8.18;;;;;;;;;;5027950;28;20580;-73
2024/01/17 05:28:43;;;;;;;23.08;9.57;;;;;;;;;;5022715;28;20033;-73
2024/01/17 05:31:09;;;;;;;21.23;7.93;;;;;;;;;;5015895;28;20041;-73
2024/01/17 05:33:35;;;;;;;38.75;13.27;;;;;;;;;;5018579;28;20513;-74
2024/01/17 05:36:01;;;;;;;24.63;9.75;;;;;;;;;;5022205;28;20064;-73
2024/01/17 05:38:27;;;;;;;14.73;7.82;;;;;;;;;;5034298;28;20056;-73
2024/01/17 05:40:52;;;;;;;19.58;7.65;;;;;;;;;;5037146;28;20048;-73
2024/01/17 05:43:17;;;;;;;21.02;8.25;;;;;;;;;;5037255;28;20040;-73
2024/01/17 05:45:43;;;;;;;13.23;7.05;;;;;;;;;;5026999;28;20462;-73
2024/01/17 05:48:08;;;;;;;14.60;7.30;;;;;;;;;;5033658;28;20036;-73
2024/01/17 05:50:34;;;;;;;14.40;7.38;;;;;;;;;;5027279;28;20033;-73
2024/01/17 05:52:59;;;;;;;18.05;8.27;;;;;;;;;;5025779;28;20128;-73
2024/01/17 05:55:26;;;;;;;17.40;8.32;;;;;;;;;;5030588;28;20063;-73
2024/01/17 05:57:53;;;;;;;9.65;5.57;;;;;;;;;;5023814;28;20042;-73
2024/01/17 06:00:18;;;;;;;13.35;5.28;;;;;;;;;;5013440;28;20038;-73
2024/01/17 06:02:44;;;;;;;12.40;5.75;;;;;;;;;;5026030;28;20552;-73
2024/01/17 06:05:10;;;;;;;14.88;5.82;;;;;;;;;;5030350;28;20122;-73
2024/01/17 06:07:36;;;;;;;11.65;6.18;;;;;;;;;;5029223;28;20090;-73
2024/01/17 06:10:03;;;;;;;16.63;6.50;;;;;;;;;;5030058;28;20033;-71
2024/01/17 06:12:28;;;;;;;11.88;5.55;;;;;;;;;;5002805;28;20060;-74
2024/01/17 06:14:54;;;;;;;11.60;5.38;;;;;;;;;;5012405;28;20072;-72
2024/01/17 06:17:19;;;;;;;27.42;9.52;;;;;;;;;;5025133;28;20820;-76
2024/01/17 06:19:45;;;;;;;15.48;6.38;;;;;;;;;;5034203;28;20037;-75
2024/01/17 06:22:11;;;;;;;12.88;5.82;;;;;;;;;;5022447;28;21068;-73
2024/01/17 06:24:36;;;;;;;11.18;6.32;;;;;;;;;;5025887;28;20057;-74
2024/01/17 06:27:02;;;;;;;14.50;7.07;;;;;;;;;;5021383;28;20188;-75
2024/01/17 06:29:33;;;;;;;15.50;6.72;;;;;;;;;;5022865;28;20045;-75
2024/01/17 06:31:59;;;;;;;14.32;6.80;;;;;;;;;;5033763;28;20717;-75
2024/01/17 06:34:25;;;;;;;17.25;8.02;;;;;;;;;;5033069;28;20036;-75
2024/01/17 06:36:50;;;;;;;14.73;6.82;;;;;;;;;;5027950;28;20041;-74
2024/01/17 06:39:16;;;;;;;15.05;7.10;;;;;;;;;;5037683;28;20047;-75
2024/01/17 06:41:42;;;;;;;14.70;6.55;;;;;;;;;;5017497;28;20037;-72
2024/01/17 06:44:09;;;;;;;16.55;7.32;;;;;;;;;;5032193;28;20649;-74
2024/01/17 06:46:35;;;;;;;11.38;7.07;;;;;;;;;;5003666;28;20151;-75
2024/01/17 06:49:01;;;;;;;15.00;7.15;;;;;;;;;;5017739;28;20037;-71
2024/01/17 06:51:26;;;;;;;11.93;7.68;;;;;;;;;;5030676;28;20033;-75
2024/01/17 06:53:52;;;;;;;19.65;9.48;;;;;;;;;;5022172;28;20029;-74
2024/01/17 06:56:17;;;;;;;17.40;9.75;;;;;;;;;;5017576;28;20037;-71
2024/01/17 06:58:43;;;;;;;19.45;7.85;;;;;;;;;;5030826;28;20029;-71
2024/01/17 07:01:09;;;;;;;21.25;7.97;;;;;;;;;;5040124;28;20044;-74
2024/01/17 07:03:35;;;;;;;17.80;8.63;;;;;;;;;;5022345;28;20641;-75
2024/01/17 07:06:01;;;;;;;16.27;9.18;;;;;;;;;;5035687;28;20048;-73
2024/01/17 07:08:27;;;;;;;15.60;7.57;;;;;;;;;;5023445;28;20584;-75
2024/01/17 07:10:52;;;;;;;13.02;4.18;;;;;;;;;;5008768;28;20144;-76
2024/01/17 07:13:17;;;;;;;14.30;7.10;;;;;;;;;;5025059;28;20537;-75
2024/01/17 07:15:43;;;;;;;24.23;11.60;;;;;;;;;;5019709;28;20653;-75
2024/01/17 07:18:08;;;;;;;27.55;11.65;;;;;;;;;;5020229;28;20036;-75
2024/01/17 07:20:33;;;;;;;21.27;9.88;;;;;;;;;;5023114;28;20090;-71
2024/01/17 07:22:59;;;;;;;23.60;9.85;;;;;;;;;;5029867;28;20033;-75
2024/01/17 07:25:24;;;;;;;17.73;10.02;;;;;;;;;;5006917;28;20078;-76
2024/01/17 07:27:50;;;;;;;23.95;8.55;;;;;;;;;;5030557;28;20040;-75
2024/01/17 07:30:15;;;;;;;19.65;8.40;;;;;;;;;;5033444;28;20040;-75
2024/01/17 07:32:41;;;;;;;21.05;10.30;;;;;;;;;;5016146;28;20033;-75
2024/01/17 07:35:07;;;;;;;19.10;8.45;;;;;;;;;;5030761;28;20457;-72
2024/01/17 07:37:33;;;;;;;18.55;9.50;;;;;;;;;;5031800;28;20060;-73
2024/01/17 07:39:59;;;;;;;20.25;10.15;;;;;;;;;;5022194;28;20684;-74
2024/01/17 07:42:24;;;;;;;18.13;9.10;;;;;;;;;;5024551;28;20039;-75
2024/01/17 07:44:50;;;;;;;17.90;7.68;;;;;;;;;;5037518;28;20131;-75
2024/01/17 07:47:15;;;;;;;18.52;8.50;;;;;;;;;;5042248;28;20044;-75
2024/01/17 07:49:43;;;;;;;15.98;7.68;;;;;;;;;;5032951;28;20036;-75
2024/01/17 07:52:09;;;;;;;16.13;7.78;;;;;;;;;;5037469;28;20571;-74
2024/01/17 07:54:35;;;;;;;19.42;7.88;;;;;;;;;;5017616;28;20034;-75
2024/01/17 07:57:00;;;;;;;14.57;6.85;;;;;;;;;;5032320;28;20110;-73
2024/01/17 07:59:27;;;;;;;17.35;7.45;;;;;;;;;;5031870;28;20037;-74
2024/01/17 08:01:53;;;;;;;16.33;7.97;;;;;;;;;;5021458;28;20061;-74
2024/01/17 08:04:19;;;;;;;13.82;7.43;;;;;;;;;;5024960;28;20056;-72
2024/01/17 08:06:44;;;;;;;17.85;8.07;;;;;;;;;;5029225;28;20029;-75
2024/01/17 08:09:20;;;;;;;15.00;8.95;;;;;;;;;;5009530;28;20515;-75
2024/01/17 08:11:54;;;;;;;18.48;9.13;;;;;;;;;;5022016;28;20178;-74
2024/01/17 08:14:20;;;;;;;15.05;9.10;;;;;;;;;;4997175;28;20037;-74
2024/01/17 08:16:46;;;;;;;27.02;11.88;;;;;;;;;;5028359;28;20398;-75
2024/01/17 08:19:12;;;;;;;23.17;10.23;;;;;;;;;;5031858;28;20040;-75
2024/01/17 08:21:37;;;;;;;23.67;11.00;;;;;;;;;;5021499;28;20033;-73
2024/01/17 08:24:03;;;;;;;17.30;8.68;;;;;;;;;;5030799;28;20515;-72
2024/01/17 08:26:29;;;;;;;17.23;7.80;;;;;;;;;;5030279;28;20049;-73
2024/01/17 08:28:55;;;;;;;18.92;8.75;;;;;;;;;;5031789;28;20066;-76
2024/01/17 08:31:20;;;;;;;18.02;9.35;;;;;;;;;;5031327;28;20103;-75
2024/01/17 08:33:46;;;;;;;18.85;9.50;;;;;;;;;;5011807;28;20045;-73
2024/01/17 08:36:12;;;;;;;23.13;10.20;;;;;;;;;;5019929;28;20467;-75
2024/01/17 08:38:37;;;;;;;22.27;10.65;;;;;;;;;;5028164;28;20041;-72
2024/01/17 08:41:03;;;;;;;17.55;8.65;;;;;;;;;;5027147;28;20041;-75
2024/01/17 08:43:28;;;;;;;14.77;8.23;;;;;;;;;;5018381;28;20156;-74
2024/01/17 08:45:54;;;;;;;17.35;8.02;;;;;;;;;;5022460;28;20037;-75
2024/01/17 08:48:19;;;;;;;18.83;9.43;;;;;;;;;;5021400;28;20788;-75
2024/01/17 08:50:45;;;;;;;19.50;9.15;;;;;;;;;;5017994;28;20044;-71
2024/01/17 08:53:10;;;;;;;14.02;7.15;;;;;;;;;;5034344;28;20036;-75
2024/01/17 08:55:36;;;;;;;16.40;7.78;;;;;;;;;;5030042;28;20049;-75
2024/01/17 08:58:01;;;;;;;31.08;11.48;;;;;;;;;;5034447;28;20040;-74
2024/01/17 09:00:26;;;;;;;31.00;14.25;;;;;;;;;;5032402;28;20465;-74
2024/01/17 09:02:52;;;;;;;42.08;16.67;;;;;;;;;;5039239;28;20045;-73
2024/01/17 09:05:18;;;;;;;27.73;12.27;;;;;;;;;;5019468;28;20083;-75
2024/01/17 09:07:45;;;;;;;37.50;17.35;;;;;;;;;;5028002;28;20120;-74
2024/01/17 09:10:13;;;;;;;35.63;14.57;;;;;;;;;;5023823;28;21646;-72
2024/01/17 09:12:38;;;;;;;23.23;9.52;;;;;;;;;;5034797;28;20029;-74
2024/01/17 09:15:04;;;;;;;27.23;13.50;;;;;;;;;;5037901;28;20098;-76
2024/01/17 09:17:30;;;;;;;29.45;12.80;;;;;;;;;;5033178;28;20037;-75
2024/01/17 09:19:55;;;;;;;37.50;14.35;;;;;;;;;;5014782;28;20092;-75
2024/01/17 09:22:20;;;;;;;36.63;16.60;;;;;;;;;;5030423;28;20045;-75
2024/01/17 09:24:47;;;;;;;28.92;12.45;;;;;;;;;;5031805;28;20050;-73
2024/01/17 09:27:12;;;;;;;28.05;13.48;;;;;;;;;;5021332;28;20086;-74
2024/01/17 09:29:37;;;;;;;36.33;16.88;;;;;;;;;;5034595;28;20102;-74
2024/01/17 09:32:04;;;;;;;48.63;19.77;;;;;;;;;;5035615;28;20086;-75
2024/01/17 09:34:32;;;;;;;63.92;21.85;;;;;;;;;;5025586;28;20521;-75
2024/01/17 09:36:58;;;;;;;49.42;19.00;;;;;;;;;;5034662;28;20124;-73
2024/01/17 09:39:23;;;;;;;83.40;31.65;;;;;;;;;;5029821;28;20250;-73
2024/01/17 09:41:49;;;;;;;83.10;33.35;;;;;;;;;;5035246;28;20320;-74
2024/01/17 09:44:15;;;;;;;62.80;23.65;;;;;;;;;;5022587;28;20041;-76
2024/01/17 09:46:43;;;;;;;51.53;23.73;;;;;;;;;;5029579;28;20033;-73
2024/01/17 09:49:09;;;;;;;40.72;18.00;;;;;;;;;;5036629;28;20063;-75
2024/01/17 09:51:35;;;;;;;47.40;17.98;;;;;;;;;;5031672;28;20045;-73
2024/01/17 09:54:04;;;;;;;28.88;13.18;;;;;;;;;;5033917;28;20040;-73
2024/01/17 09:56:31;;;;;;;35.05;16.40;;;;;;;;;;5027912;28;20041;-73
2024/01/17 09:59:02;;;;;;;24.13;11.88;;;;;;;;;;5030621;28;20041;-71
2024/01/17 10:01:30;;;;;;;26.95;11.10;;;;;;;;;;5032977;28;20505;-75
2024/01/17 10:03:59;;;;;;;27.52;11.18;;;;;;;;;;5028843;28;20136;-74
2024/01/17 10:06:25;;;;;;;26.77;12.85;;;;;;;;;;5036787;28;20396;-75
2024/01/17 10:08:51;;;;;;;32.70;12.90;;;;;;;;;;5033915;28;20111;-75
2024/01/17 10:11:16;;;;;;;30.80;12.50;;;;;;;;;;5028755;28;20511;-75
2024/01/17 10:13:41;;;;;;;25.77;11.45;;;;;;;;;;5026282;28;20127;-75
2024/01/17 10:16:08;;;;;;;22.65;11.27;;;;;;;;;;5031558;28;20715;-75
2024/01/17 10:18:34;;;;;;;23.65;11.07;;;;;;;;;;5017137;28;20518;-74
2024/01/17 10:20:59;;;;;;;26.92;11.93;;;;;;;;;;5022973;28;20128;-75
2024/01/17 10:23:26;;;;;;;21.67;10.65;;;;;;;;;;5028945;28;20554;-72
2024/01/17 10:25:51;;;;;;;32.45;14.43;;;;;;;;;;5033552;28;20076;-72
2024/01/17 10:28:17;;;;;;;21.67;11.02;;;;;;;;;;5029069;28;20087;-75
2024/01/17 10:30:43;;;;;;;17.65;10.20;;;;;;;;;;5023203;28;20036;-75
2024/01/17 10:33:08;;;;;;;26.08;11.88;;;;;;;;;;5024148;28;20049;-71
2024/01/17 10:35:34;;;;;;;26.13;13.10;;;;;;;;;;5028673;28;20041;-73
2024/01/17 10:38:00;;;;;;;19.38;10.73;;;;;;;;;;5035528;28;20063;-71
2024/01/17 10:40:25;;;;;;;16.88;9.50;;;;;;;;;;5029363;28;20045;-74
2024/01/17 10:43:09;;;;;;;25.92;11.60;;;;;;;;;;5035026;28;20094;-71
2024/01/17 10:45:37;;;;;;;26.98;13.77;;;;;;;;;;5021183;28;20040;-73
2024/01/17 10:48:03;;;;;;;31.02;14.93;;;;;;;;;;5036664;28;20041;-75
2024/01/17 10:50:29;;;;;;;29.17;13.90;;;;;;;;;;5031213;28;20045;-75
2024/01/17 10:53:04;;;;;;;23.55;12.55;;;;;;;;;;5024460;28;20581;-73
2024/01/17 10:55:33;;;;;;;25.10;12.13;;;;;;;;;;5027011;28;20437;-73
2024/01/17 10:58:00;;;;;;;22.08;12.13;;;;;;;;;;5024626;28;20086;-74
2024/01/17 11:00:31;;;;;;;24.88;12.77;;;;;;;;;;5029956;28;20054;-74
2024/01/17 11:02:58;;;;;;;28.35;11.90;;;;;;;;;;5032261;28;20041;-71
2024/01/17 11:05:30;;;;;;;27.52;12.32;;;;;;;;;;5034795;28;20525;-73
2024/01/17 11:07:58;;;;;;;31.42;15.02;;;;;;;;;;5032062;28;20095;-74
2024/01/17 11:10:24;;;;;;;36.63;19.25;;;;;;;;;;5021661;28;20044;-73
2024/01/17 11:12:50;;;;;;;30.42;16.08;;;;;;;;;;5026916;28;20049;-74
2024/01/17 11:15:17;;;;;;;25.10;11.63;;;;;;;;;;5029770;28;20060;-73
2024/01/17 11:17:45;;;;;;;24.98;11.13;;;;;;;;;;5027716;28;20484;-74
2024/01/17 11:20:12;;;;;;;20.60;10.40;;;;;;;;;;5021215;28;20812;-74
2024/01/17 11:22:41;;;;;;;25.45;11.50;;;;;;;;;;5022766;28;20055;-74
2024/01/17 11:25:22;;;;;;;26.70;11.27;;;;;;;;;;5006711;28;20506;-71
2024/01/17 11:28:26;;;;;;;25.63;11.38;;;;;;;;;;5029671;28;20045;-75
2024/01/17 11:31:11;;;;;;;23.48;11.45;;;;;;;;;;4979828;28;20721;-74
2024/01/17 11:33:36;;;;;;;25.55;10.60;;;;;;;;;;5006239;28;20044;-74
2024/01/17 11:36:02;;;;;;;18.23;10.15;;;;;;;;;;5036748;28;20041;-72
2024/01/17 11:38:31;;;;;;;19.85;9.32;;;;;;;;;;5036118;28;20090;-71
2024/01/17 11:40:57;;;;;;;25.77;11.43;;;;;;;;;;5036204;28;20036;-71
2024/01/17 11:43:29;;;;;;;22.45;10.65;;;;;;;;;;5044476;28;20041;-75
2024/01/17 11:45:55;;;;;;;23.67;9.40;;;;;;;;;;5035835;28;20130;-74
2024/01/17 11:48:24;;;;;;;20.60;10.23;;;;;;;;;;5037600;28;20565;-74
2024/01/17 11:51:15;;;;;;;23.77;10.68;;;;;;;;;;5036503;28;20691;-72
2024/01/17 11:53:50;;;;;;;26.00;11.93;;;;;;;;;;5032341;28;20086;-74
2024/01/17 11:56:20;;;;;;;27.98;12.82;;;;;;;;;;5032439;28;20071;-73
2024/01/17 11:58:51;;;;;;;25.42;12.57;;;;;;;;;;5032311;28;20039;-74
2024/01/17 12:01:22;;;;;;;28.30;12.88;;;;;;;;;;5041132;28;20048;-74
2024/01/17 12:03:51;;;;;;;26.33;13.25;;;;;;;;;;5038033;28;20037;-74
2024/01/17 12:06:18;;;;;;;23.10;11.60;;;;;;;;;;5039117;28;20051;-75
2024/01/17 12:08:44;;;;;;;21.42;9.48;;;;;;;;;;5023496;28;20131;-72
2024/01/17 12:11:10;;;;;;;26.75;11.55;;;;;;;;;;5041376;28;20061;-74
2024/01/17 12:13:36;;;;;;;21.05;9.48;;;;;;;;;;5047874;28;20047;-70
2024/01/17 12:16:04;;;;;;;19.33;9.40;;;;;;;;;;5042958;28;20052;-71
2024/01/17 12:18:31;;;;;;;24.80;10.57;;;;;;;;;;5044380;28;20028;-71
2024/01/17 12:21:02;;;;;;;20.13;10.27;;;;;;;;;;5042630;28;20041;-70
2024/01/17 12:23:32;;;;;;;19.40;8.98;;;;;;;;;;5037070;28;20087;-70
2024/01/17 12:25:59;;;;;;;20.98;9.10;;;;;;;;;;5038416;28;20521;-72
2024/01/17 12:28:27;;;;;;;21.92;9.65;;;;;;;;;;5035878;28;20040;-73
2024/01/17 12:31:06;;;;;;;20.20;9.23;;;;;;;;;;5018796;28;20044;-71
2024/01/17 12:33:34;;;;;;;22.58;9.27;;;;;;;;;;5044363;28;20041;-71
2024/01/17 12:36:00;;;;;;;17.02;7.00;;;;;;;;;;5024378;28;20121;-72
2024/01/17 12:38:29;;;;;;;12.45;6.55;;;;;;;;;;5024322;28;20033;-73
2024/01/17 12:40:55;;;;;;;21.38;9.48;;;;;;;;;;5029650;28;20106;-76
2024/01/17 12:43:21;;;;;;;18.77;8.88;;;;;;;;;;5042735;28;20703;-73
2024/01/17 12:45:54;;;;;;;21.33;8.95;;;;;;;;;;5040302;28;20413;-72
2024/01/17 12:48:20;;;;;;;21.65;8.23;;;;;;;;;;5029530;28;20056;-74
2024/01/17 12:50:54;;;;;;;13.80;7.53;;;;;;;;;;5004245;28;20046;-73
2024/01/17 12:53:29;;;;;;;18.70;7.50;;;;;;;;;;5012296;28;20038;-75
2024/01/17 12:55:56;;;;;;;16.27;7.70;;;;;;;;;;5025590;28;20029;-74
2024/01/17 12:58:22;;;;;;;16.38;7.88;;;;;;;;;;5033998;28;20043;-72
2024/01/17 13:00:54;;;;;;;14.60;7.65;;;;;;;;;;5033384;28;20033;-72
2024/01/17 13:03:21;;;;;;;17.60;7.60;;;;;;;;;;4994768;28;20106;-75
2024/01/17 13:05:57;;;;;;;16.48;7.57;;;;;;;;;;5034757;28;20033;-73
2024/01/17 13:08:23;;;;;;;14.57;7.85;;;;;;;;;;5035761;28;20469;-73
2024/01/17 13:10:52;;;;;;;12.63;7.35;;;;;;;;;;5035183;28;20417;-72
2024/01/17 13:13:27;;;;;;;16.30;7.82;;;;;;;;;;5024841;28;20075;-74
2024/01/17 13:15:58;;;;;;;18.55;8.32;;;;;;;;;;5003922;28;20813;-75
2024/01/17 13:18:24;;;;;;;15.38;8.30;;;;;;;;;;5012231;28;20783;-73
2024/01/17 13:21:08;;;;;;;22.00;7.70;;;;;;;;;;5011365;28;20116;-75
2024/01/17 13:23:33;;;;;;;18.42;8.45;;;;;;;;;;5012556;28;20059;-74
2024/01/17 13:25:59;;;;;;;18.65;8.13;;;;;;;;;;5029710;28;20037;-74
2024/01/17 13:28:27;;;;;;;20.55;9.10;;;;;;;;;;5012007;28;20056;-74
2024/01/17 13:30:52;;;;;;;16.77;8.70;;;;;;;;;;4993590;28;20065;-72
2024/01/17 13:33:24;;;;;;;20.42;9.05;;;;;;;;;;5033149;28;20110;-75
2024/01/17 13:35:53;;;;;;;18.67;8.63;;;;;;;;;;5013013;28;20041;-73
2024/01/17 13:38:24;;;;;;;21.35;10.25;;;;;;;;;;5021048;28;20119;-74
2024/01/17 13:40:50;;;;;;;;;;;;;;;;;;5013326;28;20071;-74
2024/01/17 13:43:15;;;;;;;17.95;8.52;;;;;;;;;;5024613;28;20001;-75
2024/01/17 13:45:41;;;;;;;19.85;8.85;;;;;;;;;;5008784;28;21605;-73
2024/01/17 13:48:07;;;;;;;16.92;8.18;;;;;;;;;;5030667;28;20044;-74
2024/01/17 13:50:33;;;;;;;17.83;8.98;;;;;;;;;;5032291;28;20041;-73
2024/01/17 13:53:07;;;;;;;16.88;8.88;;;;;;;;;;5035503;28;20108;-76
2024/01/17 13:55:35;;;;;;;19.30;9.73;;;;;;;;;;5036318;28;20029;-73
2024/01/17 13:58:01;;;;;;;19.88;9.15;;;;;;;;;;5021470;28;20039;-73
2024/01/17 14:00:26;;;;;;;22.45;8.57;;;;;;;;;;5015047;28;20037;-74
2024/01/17 14:02:57;;;;;;;21.95;10.57;;;;;;;;;;5022285;28;20091;-76
2024/01/17 14:05:24;;;;;;;21.23;8.18;;;;;;;;;;5012302;28;20064;-76
2024/01/17 14:07:50;;;;;;;18.05;8.27;;;;;;;;;;5019587;28;20037;-73
2024/01/17 14:10:15;;;;;;;20.33;9.73;;;;;;;;;;5033516;28;20037;-75
2024/01/17 14:12:42;;;;;;;16.85;8.63;;;;;;;;;;5008975;28;20037;-74
2024/01/17 14:15:11;;;;;;;20.70;9.18;;;;;;;;;;5038763;28;20590;-74
2024/01/17 14:17:40;;;;;;;22.17;9.77;;;;;;;;;;5025196;28;20041;-75
2024/01/17 14:20:16;;;;;;;17.30;9.32;;;;;;;;;;5032378;28;20083;-74
2024/01/17 14:22:42;;;;;;;18.02;10.27;;;;;;;;;;5003365;28;20120;-76
2024/01/17 14:25:12;;;;;;;19.60;8.38;;;;;;;;;;5031118;28;20033;-73
2024/01/17 14:27:37;;;;;;;18.87;9.20;;;;;;;;;;5039131;28;20037;-72